createdAt,value
2023-05-09T00:02:53.543Z,70.01
2023-05-09T00:05:55.227Z,69.90
2023-05-09T00:08:57.460Z,70.14
2023-05-09T00:11:58.973Z,70.01
2023-05-09T00:15:04.254Z,70.13
2023-05-09T00:18:06.273Z,69.99
2023-05-09T00:21:08.871Z,70.37
2023-05-09T00:24:10.620Z,70.47
2023-05-09T00:27:12.415Z,69.73
2023-05-09T00:30:14.012Z,69.49
2023-05-09T00:33:15.655Z,69.19
2023-05-09T00:36:17.217Z,69.34
2023-05-09T00:39:18.887Z,70.10
2023-05-09T00:42:20.555Z,70.41
2023-05-09T00:45:22.576Z,70.57
2023-05-09T00:48:24.180Z,70.53
2023-05-09T00:51:25.942Z,70.38
2023-05-09T00:54:27.480Z,70.39
2023-05-09T00:57:29.232Z,70.40
2023-05-09T01:00:30.724Z,70.26
2023-05-09T01:03:32.603Z,70.59
2023-05-09T01:06:45.551Z,70.79
2023-05-09T01:09:56.894Z,70.81
2023-05-09T01:13:10.397Z,70.54
2023-05-09T01:16:50.772Z,70.97
2023-05-09T01:19:58.877Z,71.08
2023-05-09T01:23:04.962Z,71.27
2023-05-09T01:26:27.259Z,71.51
2023-05-09T01:29:48.436Z,71.24
2023-05-09T01:32:51.713Z,71.23
2023-05-09T01:36:00.159Z,71.26
2023-05-09T01:39:02.644Z,71.21
2023-05-09T01:42:04.790Z,71.02
2023-05-09T01:45:07.546Z,71.03
2023-05-09T01:48:09.700Z,71.01
2023-05-09T01:51:13.821Z,71.45
2023-05-09T01:54:16.754Z,71.32
2023-05-09T01:57:19.075Z,71.36
2023-05-09T02:00:21.394Z,71.01
2023-05-09T02:03:23.665Z,71.08
2023-05-09T02:06:25.462Z,71.41
2023-05-09T02:09:27.310Z,71.59
2023-05-09T02:12:28.991Z,71.26
2023-05-09T02:15:30.988Z,71.32
2023-05-09T02:18:32.758Z,71.57
2023-05-09T02:21:34.298Z,72.17
2023-05-09T02:24:35.981Z,71.76
2023-05-09T02:27:38.765Z,70.83
2023-05-09T02:30:42.913Z,71.07
2023-05-09T02:33:44.965Z,71.43
2023-05-09T02:36:46.771Z,71.96
2023-05-09T02:39:48.628Z,72.28
2023-05-09T02:42:50.337Z,71.99
2023-05-09T02:45:51.953Z,72.31
2023-05-09T02:48:53.603Z,72.35
2023-05-09T02:51:55.292Z,72.45
2023-05-09T02:54:57.056Z,72.12
2023-05-09T02:58:12.117Z,72.66
2023-05-09T03:01:15.630Z,72.55
2023-05-09T03:04:17.302Z,72.62
2023-05-09T03:07:18.924Z,72.50
2023-05-09T03:10:20.581Z,72.43
2023-05-09T03:13:24.008Z,72.61
2023-05-09T03:16:25.797Z,72.49
2023-05-09T03:19:27.588Z,72.11
2023-05-09T03:22:29.148Z,72.36
2023-05-09T03:25:30.819Z,72.60
2023-05-09T03:28:33.688Z,72.13
2023-05-09T03:31:35.297Z,71.95
2023-05-09T03:34:37.198Z,72.43
2023-05-09T03:37:38.912Z,72.23
2023-05-09T03:40:41.257Z,72.51
2023-05-09T03:43:43.078Z,72.39
2023-05-09T03:46:45.278Z,71.74
2023-05-09T03:49:46.834Z,72.29
2023-05-09T03:52:48.928Z,72.14
2023-05-09T03:55:50.563Z,72.32
2023-05-09T03:58:52.330Z,72.71
2023-05-09T04:01:54.431Z,72.47
2023-05-09T04:04:56.375Z,72.66
2023-05-09T04:07:58.173Z,72.47
2023-05-09T04:11:00.215Z,72.31
2023-05-09T04:14:02.161Z,73.01
2023-05-09T04:17:03.876Z,73.03
2023-05-09T04:20:06.164Z,73.21
2023-05-09T04:23:07.876Z,73.21
2023-05-09T04:26:09.770Z,73.24
2023-05-09T04:29:11.608Z,74.10
2023-05-09T04:32:13.306Z,74.40
2023-05-09T04:35:16.583Z,74.56
2023-05-09T04:38:19.893Z,74.45
2023-05-09T04:41:21.452Z,74.00
2023-05-09T04:44:23.256Z,73.90
2023-05-09T04:47:24.947Z,73.89
2023-05-09T04:50:26.643Z,73.80
2023-05-09T04:53:28.298Z,73.95
2023-05-09T04:56:30.203Z,74.03
2023-05-09T04:59:31.838Z,73.80
2023-05-09T05:02:33.597Z,73.57
2023-05-09T05:05:37.197Z,73.01
2023-05-09T05:08:39.475Z,72.57
2023-05-09T05:11:50.124Z,72.29
2023-05-09T05:14:59.222Z,72.10
2023-05-09T05:18:00.876Z,72.30
2023-05-09T05:21:02.567Z,71.70
2023-05-09T05:24:04.479Z,71.55
2023-05-09T05:27:06.096Z,71.53
2023-05-09T05:30:08.440Z,70.46
2023-05-09T05:33:10.458Z,70.34
2023-05-09T05:36:12.139Z,70.47
2023-05-09T05:39:14.650Z,70.35
2023-05-09T05:42:16.293Z,70.48
2023-05-09T05:45:18.392Z,70.40
2023-05-09T05:48:20.430Z,69.57
2023-05-09T05:51:22.235Z,69.05
2023-05-09T05:54:23.849Z,69.18
2023-05-09T05:57:25.551Z,68.35
2023-05-09T06:00:27.201Z,67.49
2023-05-09T06:03:29.095Z,67.17
2023-05-09T06:06:31.098Z,67.57
2023-05-09T06:09:32.887Z,67.59
2023-05-09T06:12:34.525Z,68.70
2023-05-09T06:15:36.249Z,68.34
2023-05-09T06:18:38.407Z,66.91
2023-05-09T06:21:40.217Z,65.65
2023-05-09T06:24:41.889Z,67.46
2023-05-09T06:27:43.482Z,66.33
2023-05-09T06:30:45.144Z,66.90
2023-05-09T06:33:46.796Z,65.48
2023-05-09T06:36:48.373Z,64.11
2023-05-09T06:39:50.343Z,64.34
2023-05-09T06:42:52.184Z,63.14
2023-05-09T06:45:53.793Z,63.78
2023-05-09T06:48:55.495Z,62.99
2023-05-09T06:51:57.083Z,62.10
2023-05-09T06:54:58.695Z,62.94
2023-05-09T06:58:00.587Z,63.03
2023-05-09T07:01:02.324Z,62.04
2023-05-09T07:04:04.256Z,62.13
2023-05-09T07:07:05.987Z,62.92
2023-05-09T07:10:11.748Z,61.45
2023-05-09T07:13:14.279Z,60.94
2023-05-09T07:16:16.140Z,58.52
2023-05-09T07:19:17.936Z,59.03
2023-05-09T07:22:19.573Z,55.19
2023-05-09T07:25:21.730Z,56.06
2023-05-09T07:28:23.718Z,54.88
2023-05-09T07:31:25.623Z,55.59
2023-05-09T07:34:27.511Z,55.39
2023-05-09T07:37:29.333Z,56.36
2023-05-09T07:40:37.155Z,56.97
2023-05-09T07:43:38.865Z,55.55
2023-05-09T07:46:40.598Z,53.90
2023-05-09T07:49:42.259Z,52.60
2023-05-09T07:52:43.929Z,53.96
2023-05-09T07:55:45.763Z,53.43
2023-05-09T07:58:47.424Z,51.16
2023-05-09T08:01:49.022Z,52.28
2023-05-09T08:04:50.625Z,54.43
2023-05-09T08:07:52.287Z,49.12
2023-05-09T08:10:53.913Z,46.92
2023-05-09T08:13:55.556Z,48.13
2023-05-09T08:16:57.351Z,46.98
2023-05-09T08:19:59.039Z,47.84
2023-05-09T08:23:00.683Z,46.46
2023-05-09T08:26:02.741Z,46.16
2023-05-09T08:29:04.407Z,46.83
2023-05-09T08:32:06.108Z,48.22
2023-05-09T08:35:08.208Z,47.72
2023-05-09T08:38:09.984Z,45.10
2023-05-09T08:41:12.034Z,45.71
2023-05-09T08:44:13.672Z,46.29
2023-05-09T08:47:15.822Z,45.21
2023-05-09T08:50:17.916Z,45.92
2023-05-09T08:53:20.380Z,45.21
2023-05-09T08:56:22.037Z,42.37
2023-05-09T08:59:24.463Z,42.64
2023-05-09T09:02:26.196Z,43.62
2023-05-09T09:08:36.508Z,42.89
2023-05-09T09:11:38.144Z,44.71
2023-05-09T09:14:43.238Z,42.93
2023-05-09T09:17:46.969Z,40.31
2023-05-09T09:20:53.637Z,39.32
2023-05-09T09:23:55.720Z,41.19
2023-05-09T09:26:57.406Z,40.29
2023-05-09T09:30:09.268Z,39.12
2023-05-09T09:33:19.254Z,39.43
2023-05-09T09:36:31.727Z,40.91
2023-05-09T09:39:33.377Z,39.54
2023-05-09T09:42:42.142Z,39.49
2023-05-09T09:45:44.074Z,39.45
2023-05-09T09:48:46.499Z,40.83
2023-05-09T09:51:55.982Z,41.37
2023-05-09T09:54:57.627Z,39.21
2023-05-09T09:57:59.588Z,39.83
2023-05-09T10:01:08.670Z,40.48
2023-05-09T10:04:15.803Z,38.48
2023-05-09T10:07:19.557Z,37.85
2023-05-09T10:10:21.715Z,37.79
2023-05-09T10:13:25.848Z,39.15
2023-05-09T10:16:42.728Z,36.71
2023-05-09T10:19:46.452Z,39.72
2023-05-09T10:22:49.422Z,40.57
2023-05-09T10:26:11.687Z,37.08
2023-05-09T10:29:16.156Z,36.15
2023-05-09T10:32:25.362Z,37.30
2023-05-09T10:35:31.354Z,38.33
2023-05-09T10:38:33.236Z,37.79
2023-05-09T10:41:36.036Z,39.20
2023-05-09T10:44:40.729Z,40.32
2023-05-09T10:47:43.836Z,38.73
2023-05-09T10:50:45.847Z,40.28
2023-05-09T10:53:49.779Z,36.17
2023-05-09T10:56:51.462Z,36.14
2023-05-09T10:59:53.276Z,37.04
2023-05-09T11:03:07.766Z,35.74
2023-05-09T11:06:09.513Z,35.59
2023-05-09T11:09:30.845Z,36.25
2023-05-09T11:12:32.390Z,36.02
2023-05-09T11:15:34.188Z,38.39
2023-05-09T11:18:49.983Z,35.33
2023-05-09T11:22:20.745Z,37.23
2023-05-09T11:25:25.748Z,37.87
2023-05-09T11:28:29.449Z,38.17
2023-05-09T11:31:31.068Z,36.74
2023-05-09T11:34:33.916Z,35.52
2023-05-09T11:37:50.415Z,36.46
2023-05-09T11:40:51.983Z,36.91
2023-05-09T11:43:55.096Z,35.74
2023-05-09T11:46:58.433Z,35.62
2023-05-09T11:50:00.168Z,37.02
2023-05-09T11:53:01.792Z,36.44
2023-05-09T11:56:04.339Z,35.59
2023-05-09T11:59:07.214Z,36.14
2023-05-09T12:02:08.826Z,33.20
2023-05-09T12:05:12.416Z,33.20
2023-05-09T12:08:14.182Z,31.81
2023-05-09T12:11:15.963Z,31.68
2023-05-09T12:14:28.134Z,33.41
2023-05-09T12:17:29.846Z,33.19
2023-05-09T12:20:50.258Z,35.23
2023-05-09T12:23:56.050Z,34.27
2023-05-09T12:26:59.338Z,36.16
2023-05-09T12:30:01.123Z,35.67
2023-05-09T12:33:02.858Z,33.78
2023-05-09T12:36:13.787Z,33.67
2023-05-09T12:39:15.405Z,34.01
2023-05-09T12:42:17.000Z,34.23
2023-05-09T12:45:19.922Z,35.97
2023-05-09T12:48:22.790Z,35.69
2023-05-09T12:51:24.412Z,36.05
2023-05-09T12:54:28.037Z,34.72
2023-05-09T12:57:31.570Z,36.42
2023-05-09T13:00:46.126Z,37.18
2023-05-09T13:04:01.828Z,35.47
2023-05-09T13:07:09.097Z,33.55
2023-05-09T13:10:15.022Z,33.64
2023-05-09T13:13:16.962Z,35.19
2023-05-09T13:16:18.782Z,36.17
2023-05-09T13:19:20.488Z,36.42
2023-05-09T13:22:22.024Z,37.21
2023-05-09T13:25:23.608Z,36.72
2023-05-09T13:28:25.637Z,36.09
2023-05-09T13:31:27.210Z,33.70
2023-05-09T13:34:28.796Z,34.85
2023-05-09T13:37:30.440Z,35.20
2023-05-09T13:40:32.005Z,35.25
2023-05-09T13:43:34.221Z,34.94
2023-05-09T13:46:35.853Z,35.02
2023-05-09T13:49:37.811Z,33.91
2023-05-09T13:52:39.338Z,35.44
2023-05-09T13:55:41.058Z,33.69
2023-05-09T13:58:42.748Z,35.34
2023-05-09T14:01:44.686Z,35.41
2023-05-09T14:04:46.625Z,36.34
2023-05-09T14:07:48.299Z,35.00
2023-05-09T14:10:49.878Z,34.31
2023-05-09T14:13:54.316Z,33.60
2023-05-09T14:16:55.885Z,34.15
2023-05-09T14:19:57.551Z,35.13
2023-05-09T14:22:59.101Z,36.02
2023-05-09T14:26:00.758Z,36.69
2023-05-09T14:29:05.913Z,37.71
2023-05-09T14:32:07.483Z,38.19
2023-05-09T14:35:09.520Z,36.36
2023-05-09T14:38:11.136Z,34.49
2023-05-09T14:41:15.596Z,32.08
2023-05-09T14:44:17.165Z,32.19
2023-05-09T14:47:19.086Z,32.07
2023-05-09T14:50:21.239Z,31.07
2023-05-09T14:53:23.812Z,30.21
2023-05-09T14:56:25.355Z,32.06
2023-05-09T14:59:27.150Z,33.52
2023-05-09T15:02:28.842Z,35.31
2023-05-09T15:05:30.467Z,35.32
2023-05-09T15:08:31.982Z,35.69
2023-05-09T15:11:43.741Z,35.91
2023-05-09T15:14:49.015Z,36.13
2023-05-09T15:17:51.594Z,35.73
2023-05-09T15:20:53.206Z,36.05
2023-05-09T15:23:54.892Z,34.74
2023-05-09T15:26:56.396Z,35.37
2023-05-09T15:29:58.020Z,35.40
2023-05-09T15:32:59.608Z,36.15
2023-05-09T15:36:01.557Z,34.68
2023-05-09T15:39:03.625Z,35.25
2023-05-09T15:42:05.197Z,36.11
2023-05-09T15:45:08.476Z,36.41
2023-05-09T15:48:10.145Z,36.96
2023-05-09T15:51:11.962Z,36.95
2023-05-09T15:54:13.577Z,37.50
2023-05-09T15:57:15.668Z,38.04
2023-05-09T16:00:17.705Z,37.24
2023-05-09T16:03:19.881Z,36.69
2023-05-09T16:06:21.492Z,36.91
2023-05-09T16:09:23.166Z,36.98
2023-05-09T16:12:24.960Z,37.55
2023-05-09T16:15:26.514Z,38.37
2023-05-09T16:18:28.155Z,36.85
2023-05-09T16:21:29.863Z,37.63
2023-05-09T16:24:31.839Z,38.53
2023-05-09T16:27:33.659Z,38.95
2023-05-09T16:30:36.308Z,39.59
2023-05-09T16:33:37.863Z,39.80
2023-05-09T16:36:39.601Z,40.13
2023-05-09T16:39:41.167Z,40.44
2023-05-09T16:42:42.980Z,40.61
2023-05-09T16:45:44.665Z,40.54
2023-05-09T16:48:46.262Z,40.63
2023-05-09T16:51:47.821Z,40.59
2023-05-09T16:54:49.635Z,40.84
2023-05-09T16:57:51.318Z,40.99
2023-05-09T17:00:52.926Z,40.97
2023-05-09T17:03:55.205Z,41.24
2023-05-09T17:06:56.818Z,41.47
2023-05-09T17:09:58.472Z,41.83
2023-05-09T17:13:00.139Z,41.98
2023-05-09T17:16:01.888Z,42.23
2023-05-09T17:19:03.617Z,42.45
2023-05-09T17:22:05.280Z,42.71
2023-05-09T17:25:07.121Z,42.96
2023-05-09T17:28:08.748Z,43.29
2023-05-09T17:31:10.275Z,43.44
2023-05-09T17:34:11.913Z,43.63
2023-05-09T17:37:13.577Z,43.88
2023-05-09T17:40:15.333Z,44.02
2023-05-09T17:43:17.258Z,44.03
2023-05-09T17:46:19.162Z,44.35
2023-05-09T17:49:20.687Z,44.61
2023-05-09T17:52:22.336Z,44.67
2023-05-09T17:55:24.182Z,44.70
2023-05-09T17:58:26.005Z,44.84
2023-05-09T18:01:27.643Z,45.13
2023-05-09T18:04:29.169Z,45.40
2023-05-09T18:07:31.877Z,45.45
2023-05-09T18:10:33.671Z,45.62
2023-05-09T18:13:35.465Z,45.75
2023-05-09T18:16:37.176Z,45.78
2023-05-09T18:19:39.028Z,45.50
2023-05-09T18:22:40.646Z,45.65
2023-05-09T18:25:42.271Z,45.95
2023-05-09T18:28:43.888Z,46.19
2023-05-09T18:31:45.748Z,46.34
2023-05-09T18:34:47.316Z,46.45
2023-05-09T18:37:48.907Z,46.53
2023-05-09T18:40:50.524Z,46.87
2023-05-09T18:43:53.006Z,46.93
2023-05-09T18:46:54.760Z,47.24
2023-05-09T18:49:56.381Z,47.28
2023-05-09T18:52:58.480Z,47.29
2023-05-09T18:56:00.155Z,47.64
2023-05-09T18:59:01.690Z,47.56
2023-05-09T19:02:03.444Z,48.06
2023-05-09T19:05:08.701Z,48.19
2023-05-09T19:08:10.284Z,48.32
2023-05-09T19:11:11.838Z,48.67
2023-05-09T19:14:13.511Z,49.02
2023-05-09T19:17:15.002Z,49.09
2023-05-09T19:20:16.640Z,49.21
2023-05-09T19:23:18.678Z,49.26
2023-05-09T19:26:20.151Z,49.43
2023-05-09T19:29:21.753Z,49.65
2023-05-09T19:32:23.314Z,49.62
2023-05-09T19:35:25.414Z,49.94
2023-05-09T19:38:27.296Z,50.05
2023-05-09T19:41:29.638Z,50.39
2023-05-09T19:44:31.848Z,50.29
2023-05-09T19:47:34.143Z,50.43
2023-05-09T19:50:35.796Z,50.89
2023-05-09T19:53:37.798Z,51.06
2023-05-09T19:56:39.385Z,51.26
2023-05-09T19:59:41.017Z,51.48
2023-05-09T20:02:42.511Z,51.59
2023-05-09T20:09:03.587Z,52.23
2023-05-09T20:12:05.132Z,52.47
2023-05-09T20:15:07.662Z,52.82
2023-05-09T20:18:09.331Z,53.13
2023-05-09T20:21:11.179Z,52.88
2023-05-09T20:24:12.897Z,52.91
2023-05-09T20:27:14.427Z,53.07
2023-05-09T20:30:16.179Z,53.44
2023-05-09T20:33:17.949Z,54.08
2023-05-09T20:36:19.353Z,54.07
2023-05-09T20:39:21.688Z,54.09
2023-05-09T20:42:23.318Z,54.04
2023-05-09T20:45:24.754Z,54.04
2023-05-09T20:48:26.524Z,54.38
2023-05-09T20:51:28.002Z,54.47
2023-05-09T20:54:29.426Z,54.49
2023-05-09T20:57:30.987Z,54.60
2023-05-09T21:00:32.611Z,54.52
2023-05-09T21:03:34.323Z,54.57
2023-05-09T21:06:36.523Z,54.74
2023-05-09T21:09:38.109Z,55.21
2023-05-09T21:12:39.591Z,55.60
2023-05-09T21:15:41.431Z,55.76
2023-05-09T21:18:43.054Z,55.94
2023-05-09T21:21:44.471Z,56.20
2023-05-09T21:24:46.051Z,56.27
2023-05-09T21:27:47.606Z,56.35
2023-05-09T21:30:55.309Z,56.28
2023-05-09T21:33:58.716Z,56.65
2023-05-09T21:37:00.344Z,56.91
2023-05-09T21:40:02.526Z,56.92
2023-05-09T21:43:05.842Z,57.21
2023-05-09T21:46:07.577Z,56.75
2023-05-09T21:49:09.156Z,56.79
2023-05-09T21:52:10.649Z,56.65
2023-05-09T21:55:12.266Z,56.59
2023-05-09T21:58:13.800Z,56.86
2023-05-09T22:01:15.920Z,57.12
2023-05-09T22:04:17.567Z,57.09
2023-05-09T22:07:19.017Z,56.88
2023-05-09T22:10:20.534Z,56.72
2023-05-09T22:13:23.270Z,56.81
2023-05-09T22:16:25.047Z,57.11
2023-05-09T22:19:26.666Z,56.95
2023-05-09T22:22:28.069Z,57.12
2023-05-09T22:25:29.565Z,56.64
2023-05-09T22:28:31.072Z,56.98
2023-05-09T22:31:32.981Z,56.78
2023-05-09T22:34:34.979Z,56.60
2023-05-09T22:37:36.722Z,56.58
2023-05-09T22:40:38.579Z,56.61
2023-05-09T22:43:40.111Z,56.58
2023-05-09T22:46:41.637Z,56.67
2023-05-09T22:49:44.574Z,56.67
2023-05-09T22:52:47.425Z,56.80
2023-05-09T22:55:48.926Z,56.97
2023-05-09T22:58:50.528Z,57.07
2023-05-09T23:01:51.971Z,57.12
2023-05-09T23:04:53.635Z,57.12
2023-05-09T23:07:55.199Z,57.37
2023-05-09T23:10:56.900Z,57.37
2023-05-09T23:13:58.558Z,57.36
2023-05-09T23:17:00.056Z,57.53
2023-05-09T23:20:01.801Z,57.70
2023-05-09T23:23:03.301Z,57.67
2023-05-09T23:26:04.958Z,57.96
2023-05-09T23:29:06.483Z,57.67
2023-05-09T23:32:08.011Z,58.00
2023-05-09T23:35:10.251Z,57.94
2023-05-09T23:38:11.906Z,57.84
2023-05-09T23:41:13.486Z,58.05
2023-05-09T23:44:15.048Z,57.97
2023-05-09T23:47:17.079Z,58.17
2023-05-09T23:50:18.821Z,58.24
2023-05-09T23:53:20.923Z,58.46
2023-05-09T23:56:22.522Z,58.45
2023-05-09T23:59:24.093Z,58.60
